createdAt,value
2022-09-10T00:01:27.350Z,85.09
2022-09-10T00:03:55.859Z,85.10
2022-09-10T00:06:27.656Z,85.25
2022-09-10T00:08:57.715Z,85.15
2022-09-10T00:11:30.402Z,85.14
2022-09-10T00:14:00.119Z,85.05
2022-09-10T00:16:29.129Z,85.09
2022-09-10T00:19:01.094Z,84.94
2022-09-10T00:21:29.865Z,85.38
2022-09-10T00:23:58.638Z,85.34
2022-09-10T00:26:30.094Z,85.30
2022-09-10T00:28:59.799Z,85.30
2022-09-10T00:31:29.598Z,85.44
2022-09-10T00:33:59.129Z,85.45
2022-09-10T00:36:29.711Z,85.45
2022-09-10T00:39:02.245Z,85.46
2022-09-10T00:41:30.942Z,85.51
2022-09-10T00:44:04.973Z,85.35
2022-09-10T00:46:50.342Z,85.47
2022-09-10T00:49:43.622Z,85.44
2022-09-10T00:52:12.657Z,85.63
2022-09-10T00:54:42.567Z,85.70
2022-09-10T00:57:14.782Z,85.87
2022-09-10T00:59:48.439Z,85.80
2022-09-10T01:02:16.171Z,85.76
2022-09-10T01:04:44.906Z,85.98
2022-09-10T01:07:15.541Z,86.02
2022-09-10T01:09:43.726Z,86.00
2022-09-10T01:12:42.211Z,86.01
2022-09-10T01:15:41.399Z,86.07
2022-09-10T01:18:39.710Z,86.29
2022-09-10T01:21:28.284Z,86.41
2022-09-10T01:24:12.626Z,86.11
2022-09-10T01:26:43.380Z,86.23
2022-09-10T01:29:19.824Z,86.46
2022-09-10T01:31:51.101Z,86.46
2022-09-10T01:34:27.036Z,86.28
2022-09-10T01:37:01.211Z,86.28
2022-09-10T01:39:29.597Z,86.45
2022-09-10T01:42:00.132Z,86.51
2022-09-10T01:44:48.596Z,86.42
2022-09-10T01:47:45.303Z,86.46
2022-09-10T01:50:32.645Z,86.60
2022-09-10T01:53:33.597Z,86.67
2022-09-10T01:56:23.056Z,86.69
2022-09-10T01:58:54.632Z,86.56
2022-09-10T02:01:40.622Z,86.64
2022-09-10T02:04:14.657Z,86.67
2022-09-10T02:06:47.826Z,86.55
2022-09-10T02:09:18.558Z,86.58
2022-09-10T02:11:49.948Z,86.76
2022-09-10T02:14:34.061Z,86.64
2022-09-10T02:17:19.149Z,86.75
2022-09-10T02:19:51.490Z,86.78
2022-09-10T02:22:23.799Z,86.54
2022-09-10T02:24:52.560Z,86.59
2022-09-10T02:27:20.354Z,86.78
2022-09-10T02:29:49.389Z,86.97
2022-09-10T02:32:17.292Z,87.00
2022-09-10T02:34:45.476Z,86.83
2022-09-10T02:37:13.874Z,86.85
2022-09-10T02:39:41.964Z,86.77
2022-09-10T02:42:09.728Z,86.83
2022-09-10T02:44:37.558Z,86.96
2022-09-10T02:47:06.138Z,86.93
2022-09-10T02:49:34.617Z,86.96
2022-09-10T02:52:03.411Z,86.89
2022-09-10T02:54:31.155Z,87.08
2022-09-10T02:57:00.175Z,87.36
2022-09-10T02:59:28.558Z,87.10
2022-09-10T03:01:56.373Z,87.09
2022-09-10T03:04:24.311Z,87.04
2022-09-10T03:06:53.504Z,87.24
2022-09-10T03:09:22.690Z,87.43
2022-09-10T03:11:51.580Z,87.40
2022-09-10T03:14:23.140Z,87.17
2022-09-10T03:16:50.980Z,87.12
2022-09-10T03:19:18.637Z,87.08
2022-09-10T03:21:47.351Z,87.08
2022-09-10T03:24:15.643Z,87.32
2022-09-10T03:26:44.467Z,87.40
2022-09-10T03:29:12.671Z,87.45
2022-09-10T03:31:40.674Z,87.41
2022-09-10T03:34:12.529Z,87.49
2022-09-10T03:36:40.605Z,87.54
2022-09-10T03:39:08.764Z,87.66
2022-09-10T03:41:37.363Z,87.46
2022-09-10T03:44:06.145Z,87.53
2022-09-10T03:46:33.761Z,87.56
2022-09-10T03:49:03.307Z,87.62
2022-09-10T03:51:31.638Z,87.60
2022-09-10T03:54:00.204Z,87.51
2022-09-10T03:56:28.268Z,87.65
2022-09-10T03:58:56.837Z,87.79
2022-09-10T04:01:27.378Z,87.90
2022-09-10T04:03:56.671Z,87.85
2022-09-10T04:06:26.324Z,87.62
2022-09-10T04:08:54.086Z,87.63
2022-09-10T04:11:27.484Z,87.56
2022-09-10T04:13:56.667Z,87.61
2022-09-10T04:16:25.003Z,87.55
2022-09-10T04:18:52.685Z,87.63
2022-09-10T04:21:20.541Z,87.68
2022-09-10T04:23:54.655Z,87.94
2022-09-10T04:26:23.260Z,87.79
2022-09-10T04:28:51.263Z,87.86
2022-09-10T04:31:19.620Z,87.84
2022-09-10T04:33:48.417Z,87.83
2022-09-10T04:36:19.227Z,87.90
2022-09-10T04:38:46.977Z,87.87
2022-09-10T04:41:18.137Z,87.69
2022-09-10T04:43:46.306Z,87.63
2022-09-10T04:46:14.077Z,87.72
2022-09-10T04:48:43.800Z,87.96
2022-09-10T04:51:16.491Z,87.94
2022-09-10T04:53:46.845Z,87.93
2022-09-10T04:56:15.582Z,87.99
2022-09-10T04:58:44.150Z,87.91
2022-09-10T05:01:13.340Z,87.78
2022-09-10T05:03:42.670Z,87.82
2022-09-10T05:06:10.391Z,88.03
2022-09-10T05:08:38.300Z,87.96
2022-09-10T05:11:06.501Z,88.03
2022-09-10T05:13:34.981Z,87.83
2022-09-10T05:16:02.870Z,87.68
2022-09-10T05:18:34.022Z,87.84
2022-09-10T05:21:02.065Z,87.71
2022-09-10T05:23:30.094Z,87.66
2022-09-10T05:26:00.283Z,87.67
2022-09-10T05:28:28.684Z,87.81
2022-09-10T05:30:56.760Z,87.89
2022-09-10T05:33:27.324Z,87.95
2022-09-10T05:35:55.624Z,88.10
2022-09-10T05:38:24.798Z,88.03
2022-09-10T05:40:52.716Z,88.07
2022-09-10T05:43:20.918Z,88.03
2022-09-10T05:45:51.880Z,88.03
2022-09-10T05:48:21.187Z,88.03
2022-09-10T05:50:50.792Z,88.12
2022-09-10T05:53:18.832Z,88.07
2022-09-10T05:55:46.431Z,88.01
2022-09-10T05:58:14.296Z,87.87
2022-09-10T06:00:45.271Z,88.19
2022-09-10T06:03:14.559Z,88.47
2022-09-10T06:05:52.533Z,88.24
2022-09-10T06:08:25.116Z,88.09
2022-09-10T06:11:00.502Z,88.16
2022-09-10T06:13:33.850Z,88.11
2022-09-10T06:16:02.023Z,87.99
2022-09-10T06:18:31.961Z,87.89
2022-09-10T06:21:10.141Z,87.97
2022-09-10T06:23:39.149Z,88.13
2022-09-10T06:26:10.316Z,88.16
2022-09-10T06:28:38.990Z,88.21
2022-09-10T06:31:10.915Z,88.04
2022-09-10T06:33:38.627Z,88.26
2022-09-10T06:36:06.968Z,88.21
2022-09-10T06:38:36.002Z,88.20
2022-09-10T06:41:08.872Z,88.18
2022-09-10T06:43:41.497Z,88.13
2022-09-10T06:46:51.194Z,88.17
2022-09-10T06:49:11.697Z,88.18
2022-09-10T06:51:39.790Z,87.87
2022-09-10T06:54:09.389Z,87.87
2022-09-10T06:56:38.094Z,87.97
2022-09-10T06:59:06.281Z,87.89
2022-09-10T07:01:38.247Z,87.74
2022-09-10T07:04:06.788Z,87.61
2022-09-10T07:06:35.975Z,87.68
2022-09-10T07:09:06.828Z,87.61
2022-09-10T07:11:41.758Z,87.44
2022-09-10T07:14:13.962Z,87.37
2022-09-10T07:16:42.385Z,87.24
2022-09-10T07:19:14.784Z,87.48
2022-09-10T07:21:45.267Z,87.03
2022-09-10T07:24:15.465Z,86.84
2022-09-10T07:26:59.404Z,87.00
2022-09-10T07:29:31.167Z,87.09
2022-09-10T07:32:00.444Z,86.91
2022-09-10T07:34:30.061Z,86.80
2022-09-10T07:36:57.665Z,86.50
2022-09-10T07:39:26.819Z,86.40
2022-09-10T07:41:57.149Z,86.16
2022-09-10T07:44:29.189Z,86.23
2022-09-10T07:47:03.430Z,86.53
2022-09-10T07:49:33.410Z,86.58
2022-09-10T07:52:00.981Z,86.41
2022-09-10T07:54:37.279Z,86.26
2022-09-10T07:57:06.361Z,86.06
2022-09-10T07:59:35.474Z,85.89
2022-09-10T08:02:06.475Z,85.94
2022-09-10T08:04:37.574Z,85.96
2022-09-10T08:07:08.443Z,85.98
2022-09-10T08:09:38.123Z,85.85
2022-09-10T08:12:08.026Z,85.86
2022-09-10T08:14:38.987Z,85.71
2022-09-10T08:17:06.889Z,85.90
2022-09-10T08:19:39.419Z,85.91
2022-09-10T08:22:11.454Z,85.91
2022-09-10T08:24:44.382Z,85.77
2022-09-10T08:27:12.245Z,85.69
2022-09-10T08:29:40.590Z,85.63
2022-09-10T08:32:12.862Z,85.59
2022-09-10T08:34:41.338Z,85.24
2022-09-10T08:37:10.869Z,84.99
2022-09-10T08:39:39.019Z,84.88
2022-09-10T08:42:09.251Z,84.80
2022-09-10T08:44:58.880Z,84.87
2022-09-10T08:47:45.633Z,84.61
2022-09-10T08:50:30.001Z,84.54
2022-09-10T08:53:13.232Z,84.50
2022-09-10T08:55:47.099Z,84.55
2022-09-10T08:58:20.835Z,84.65
2022-09-10T09:00:55.870Z,84.67
2022-09-10T09:03:42.891Z,84.37
2022-09-10T09:06:24.989Z,84.44
2022-09-10T09:08:54.306Z,84.55
2022-09-10T09:11:31.962Z,84.29
2022-09-10T09:14:12.881Z,84.32
2022-09-10T09:16:47.031Z,84.35
2022-09-10T09:19:18.206Z,84.29
2022-09-10T09:21:53.189Z,84.43
2022-09-10T09:24:24.628Z,84.66
2022-09-10T09:27:01.813Z,84.72
2022-09-10T09:29:46.148Z,84.74
2022-09-10T09:32:17.802Z,84.68
2022-09-10T09:35:07.388Z,84.74
2022-09-10T09:37:37.913Z,84.56
2022-09-10T09:40:16.662Z,84.48
2022-09-10T09:43:04.743Z,84.43
2022-09-10T09:45:38.466Z,84.33
2022-09-10T09:48:10.030Z,84.20
2022-09-10T09:50:41.737Z,84.05
2022-09-10T09:53:26.972Z,84.35
2022-09-10T09:56:04.602Z,84.33
2022-09-10T09:58:35.361Z,84.37
2022-09-10T10:01:05.710Z,84.28
2022-09-10T10:03:42.357Z,84.37
2022-09-10T10:06:12.097Z,84.15
2022-09-10T10:08:44.185Z,84.05
2022-09-10T10:11:20.448Z,83.88
2022-09-10T10:13:52.927Z,83.96
2022-09-10T10:16:36.618Z,83.84
2022-09-10T10:19:40.274Z,83.84
2022-09-10T10:22:13.840Z,84.02
2022-09-10T10:24:42.455Z,84.00
2022-09-10T10:27:17.533Z,84.12
2022-09-10T10:29:53.964Z,83.99
2022-09-10T10:32:34.553Z,83.71
2022-09-10T10:35:16.447Z,83.63
2022-09-10T10:37:51.977Z,83.56
2022-09-10T10:40:30.391Z,83.44
2022-09-10T10:43:16.620Z,83.46
2022-09-10T10:46:11.291Z,83.09
2022-09-10T10:48:50.723Z,82.95
2022-09-10T10:51:41.325Z,83.45
2022-09-10T10:54:22.290Z,83.70
2022-09-10T10:56:59.903Z,83.39
2022-09-10T10:59:33.427Z,83.38
2022-09-10T11:02:12.604Z,83.61
2022-09-10T11:04:46.644Z,83.64
2022-09-10T11:07:21.597Z,83.54
2022-09-10T11:10:11.617Z,83.30
2022-09-10T11:12:49.218Z,83.32
2022-09-10T11:15:28.911Z,83.43
2022-09-10T11:18:29.536Z,83.43
2022-09-10T11:21:03.258Z,83.51
2022-09-10T11:24:00.285Z,83.52
2022-09-10T11:26:38.997Z,83.20
2022-09-10T11:29:28.694Z,83.09
2022-09-10T11:32:35.991Z,83.21
2022-09-10T11:35:12.805Z,82.81
2022-09-10T11:38:01.230Z,82.82
2022-09-10T11:40:52.620Z,82.86
2022-09-10T11:43:33.238Z,82.66
2022-09-10T11:46:05.843Z,82.94
2022-09-10T11:48:42.363Z,82.76
2022-09-10T11:51:37.647Z,82.94
2022-09-10T11:54:13.408Z,82.65
2022-09-10T11:56:46.941Z,82.71
2022-09-10T11:59:24.552Z,82.67
2022-09-10T12:02:24.143Z,82.81
2022-09-10T12:05:10.782Z,82.75
2022-09-10T12:07:50.365Z,82.60
2022-09-10T12:10:50.408Z,82.64
2022-09-10T12:13:18.228Z,82.73
2022-09-10T12:15:57.542Z,82.68
2022-09-10T12:18:32.417Z,82.69
2022-09-10T12:21:08.085Z,82.65
2022-09-10T12:23:39.911Z,82.45
2022-09-10T12:26:16.291Z,82.50
2022-09-10T12:29:01.494Z,82.54
2022-09-10T12:32:05.220Z,82.50
2022-09-10T12:34:33.378Z,82.48
2022-09-10T12:37:00.929Z,82.50
2022-09-10T12:39:29.400Z,82.66
2022-09-10T12:42:22.896Z,82.52
2022-09-10T12:44:50.601Z,82.52
2022-09-10T12:47:18.114Z,82.61
2022-09-10T12:49:52.877Z,82.63
2022-09-10T12:52:31.975Z,82.65
2022-09-10T12:55:31.890Z,82.63
2022-09-10T12:58:12.404Z,82.68
2022-09-10T13:00:56.010Z,82.71
2022-09-10T13:03:28.959Z,82.69
2022-09-10T13:06:00.639Z,82.73
2022-09-10T13:08:33.906Z,82.82
2022-09-10T13:11:03.129Z,82.75
2022-09-10T13:13:46.673Z,82.57
2022-09-10T13:16:38.279Z,82.58
2022-09-10T13:19:22.052Z,82.92
2022-09-10T13:21:52.247Z,82.75
2022-09-10T13:24:37.085Z,82.74
2022-09-10T13:27:08.337Z,82.90
2022-09-10T13:29:39.836Z,82.81
2022-09-10T13:32:15.141Z,82.92
2022-09-10T13:34:49.973Z,82.98
2022-09-10T13:37:48.573Z,82.83
2022-09-10T13:40:48.831Z,82.81
2022-09-10T13:43:48.837Z,82.67
2022-09-10T13:46:31.081Z,82.59
2022-09-10T13:49:12.538Z,82.60
2022-09-10T13:51:58.523Z,82.60
2022-09-10T13:54:35.277Z,82.82
2022-09-10T13:57:34.903Z,82.81
2022-09-10T14:00:18.846Z,82.98
2022-09-10T14:02:53.079Z,82.94
2022-09-10T14:05:35.229Z,82.99
2022-09-10T14:08:27.564Z,82.89
2022-09-10T14:11:15.838Z,83.03
2022-09-10T14:14:05.841Z,82.94
2022-09-10T14:16:33.370Z,82.98
2022-09-10T14:19:04.035Z,82.95
2022-09-10T14:21:32.298Z,83.01
2022-09-10T14:24:00.140Z,83.08
2022-09-10T14:26:30.424Z,83.16
2022-09-10T14:29:22.623Z,83.07
2022-09-10T14:31:50.362Z,83.01
2022-09-10T14:34:32.293Z,82.97
2022-09-10T14:37:02.167Z,83.18
2022-09-10T14:39:30.096Z,83.20
2022-09-10T14:42:29.887Z,83.28
2022-09-10T14:44:57.534Z,83.20
2022-09-10T14:47:34.782Z,83.29
2022-09-10T14:50:34.721Z,83.19
2022-09-10T14:53:02.862Z,83.49
2022-09-10T14:55:32.308Z,83.44
2022-09-10T14:58:00.078Z,83.59
2022-09-10T15:00:28.203Z,83.60
2022-09-10T15:02:57.189Z,83.51
2022-09-10T15:05:24.810Z,83.57
2022-09-10T15:07:52.396Z,83.61
2022-09-10T15:10:20.487Z,83.81
2022-09-10T15:12:49.783Z,83.60
2022-09-10T15:15:18.022Z,83.52
2022-09-10T15:17:45.630Z,83.72
2022-09-10T15:20:16.769Z,83.79
2022-09-10T15:22:44.835Z,83.95
2022-09-10T15:25:33.835Z,83.98
2022-09-10T15:28:04.044Z,83.98
2022-09-10T15:30:31.761Z,83.72
2022-09-10T15:33:00.074Z,83.67
2022-09-10T15:35:28.767Z,83.71
2022-09-10T15:37:57.647Z,83.77
2022-09-10T15:40:25.249Z,83.77
2022-09-10T15:42:52.958Z,83.80
2022-09-10T15:45:20.563Z,83.85
2022-09-10T15:47:48.243Z,83.97
2022-09-10T15:50:16.682Z,83.97
2022-09-10T15:52:44.949Z,83.98
2022-09-10T15:55:13.232Z,84.02
2022-09-10T15:57:41.026Z,84.07
2022-09-10T16:00:09.494Z,84.24
2022-09-10T16:02:37.374Z,84.14
2022-09-10T16:05:05.931Z,84.28
2022-09-10T16:07:33.589Z,84.22
2022-09-10T16:10:01.992Z,84.27
2022-09-10T16:12:31.179Z,84.23
2022-09-10T16:15:00.809Z,84.23
2022-09-10T16:17:28.499Z,84.18
2022-09-10T16:19:56.425Z,84.18
2022-09-10T16:22:24.013Z,84.22
2022-09-10T16:24:51.888Z,84.17
2022-09-10T16:27:19.704Z,84.36
2022-09-10T16:29:48.647Z,84.47
2022-09-10T16:32:16.308Z,84.61
2022-09-10T16:34:44.064Z,84.20
2022-09-10T16:37:11.691Z,84.28
2022-09-10T16:39:40.246Z,84.43
2022-09-10T16:42:08.254Z,84.48
2022-09-10T16:44:36.236Z,84.60
2022-09-10T16:47:03.971Z,84.65
2022-09-10T16:49:32.485Z,84.57
2022-09-10T16:52:00.072Z,84.64
2022-09-10T16:54:31.788Z,84.59
2022-09-10T16:56:59.400Z,84.58
2022-09-10T16:59:28.049Z,84.62
2022-09-10T17:01:59.037Z,84.72
2022-09-10T17:04:29.298Z,84.71
2022-09-10T17:06:58.063Z,84.86
2022-09-10T17:09:26.261Z,84.78
2022-09-10T17:11:54.213Z,84.73
2022-09-10T17:14:22.159Z,84.86
2022-09-10T17:16:50.075Z,84.99
2022-09-10T17:19:23.665Z,84.81
2022-09-10T17:21:55.133Z,84.94
2022-09-10T17:24:26.360Z,84.97
2022-09-10T17:26:57.924Z,85.33
2022-09-10T17:29:25.826Z,85.40
2022-09-10T17:31:57.341Z,85.27
2022-09-10T17:34:26.346Z,85.21
2022-09-10T17:36:54.451Z,85.13
2022-09-10T17:39:22.704Z,85.06
2022-09-10T17:41:50.290Z,85.18
2022-09-10T17:44:18.138Z,85.06
2022-09-10T17:46:46.373Z,85.16
2022-09-10T17:49:15.530Z,85.35
2022-09-10T17:51:43.993Z,85.43
2022-09-10T17:54:13.029Z,85.21
2022-09-10T17:56:41.926Z,85.08
2022-09-10T17:59:12.108Z,85.07
2022-09-10T18:01:40.549Z,85.14
2022-09-10T18:04:12.556Z,85.14
2022-09-10T18:06:40.826Z,85.09
2022-09-10T18:09:08.597Z,85.10
2022-09-10T18:11:39.823Z,85.24
2022-09-10T18:14:08.252Z,85.25
2022-09-10T18:16:37.935Z,85.25
2022-09-10T18:19:13.728Z,85.35
2022-09-10T18:21:44.391Z,85.42
2022-09-10T18:24:15.129Z,85.47
2022-09-10T18:26:45.655Z,85.45
2022-09-10T18:29:17.643Z,85.40
2022-09-10T18:31:48.941Z,85.51
2022-09-10T18:34:23.543Z,85.45
2022-09-10T18:36:55.384Z,85.23
2022-09-10T18:39:24.885Z,85.30
2022-09-10T18:41:53.365Z,85.20
2022-09-10T18:44:27.772Z,85.32
2022-09-10T18:46:55.968Z,85.20
2022-09-10T18:49:25.053Z,85.31
2022-09-10T18:51:55.333Z,85.47
2022-09-10T18:54:28.571Z,85.51
2022-09-10T18:56:57.353Z,85.38
2022-09-10T18:59:25.471Z,85.10
2022-09-10T19:01:55.600Z,85.12
2022-09-10T19:04:25.969Z,85.38
2022-09-10T19:06:54.269Z,85.34
2022-09-10T19:09:24.129Z,85.48
2022-09-10T19:11:53.819Z,85.47
2022-09-10T19:14:30.352Z,85.54
2022-09-10T19:17:00.272Z,85.61
2022-09-10T19:19:31.607Z,85.68
2022-09-10T19:22:03.269Z,85.81
2022-09-10T19:27:19.216Z,85.37
2022-09-10T19:29:49.528Z,85.45
2022-09-10T19:32:19.618Z,85.52
2022-09-10T19:34:52.117Z,85.31
2022-09-10T19:37:20.700Z,85.33
2022-09-10T19:39:48.463Z,85.39
2022-09-10T19:42:17.152Z,85.73
2022-09-10T19:44:45.218Z,85.54
2022-09-10T19:47:12.929Z,85.78
2022-09-10T19:49:40.595Z,85.89
2022-09-10T19:52:09.876Z,86.05
2022-09-10T19:54:37.454Z,86.03
2022-09-10T19:57:05.089Z,86.13
2022-09-10T19:59:32.674Z,85.97
2022-09-10T20:02:00.613Z,86.05
2022-09-10T20:04:28.579Z,86.31
2022-09-10T20:06:56.247Z,86.12
2022-09-10T20:09:24.132Z,86.12
2022-09-10T20:11:51.819Z,86.25
2022-09-10T20:14:20.143Z,86.37
2022-09-10T20:16:47.946Z,86.28
2022-09-10T20:19:21.826Z,86.05
2022-09-10T20:21:49.991Z,86.23
2022-09-10T20:24:17.620Z,85.92
2022-09-10T20:26:46.689Z,86.10
2022-09-10T20:29:20.626Z,86.09
2022-09-10T20:31:48.808Z,86.38
2022-09-10T20:34:19.698Z,86.48
2022-09-10T20:36:51.212Z,86.32
2022-09-10T20:39:22.289Z,86.37
2022-09-10T20:41:50.146Z,86.59
2022-09-10T20:44:18.111Z,86.84
2022-09-10T20:46:45.758Z,86.91
2022-09-10T20:49:16.102Z,86.92
2022-09-10T20:51:44.535Z,87.07
2022-09-10T20:54:15.038Z,87.23
2022-09-10T20:56:43.605Z,87.27
2022-09-10T20:59:16.786Z,87.44
2022-09-10T21:01:45.948Z,87.62
2022-09-10T21:04:14.608Z,87.72
2022-09-10T21:06:42.325Z,87.80
2022-09-10T21:09:11.192Z,87.83
2022-09-10T21:11:39.337Z,88.00
2022-09-10T21:14:08.016Z,88.02
2022-09-10T21:16:38.215Z,88.02
2022-09-10T21:19:12.026Z,88.14
2022-09-10T21:21:41.736Z,88.28
2022-09-10T21:24:14.552Z,88.37
2022-09-10T21:26:43.322Z,88.46
2022-09-10T21:29:16.824Z,88.57
2022-09-10T21:31:45.311Z,88.56
2022-09-10T21:34:14.080Z,88.71
2022-09-10T21:36:43.514Z,88.62
2022-09-10T21:39:16.497Z,88.62
2022-09-10T21:41:49.983Z,88.42
2022-09-10T21:44:20.017Z,88.59
2022-09-10T21:46:49.180Z,88.73
2022-09-10T21:49:18.393Z,88.72
2022-09-10T21:51:46.057Z,88.77
2022-09-10T21:54:18.537Z,89.08
2022-09-10T21:56:47.628Z,88.93
2022-09-10T21:59:16.111Z,88.87
2022-09-10T22:01:46.349Z,88.96
2022-09-10T22:04:18.945Z,89.08
2022-09-10T22:06:49.431Z,89.23
2022-09-10T22:09:17.659Z,89.22
2022-09-10T22:11:47.941Z,89.32
2022-09-10T22:14:21.342Z,89.37
2022-09-10T22:16:49.928Z,89.48
2022-09-10T22:19:21.697Z,89.45
2022-09-10T22:21:50.059Z,89.41
2022-09-10T22:24:20.952Z,89.58
2022-09-10T22:26:49.099Z,89.59
2022-09-10T22:29:18.883Z,89.75
2022-09-10T22:31:47.200Z,89.61
2022-09-10T22:34:16.395Z,89.89
2022-09-10T22:36:45.744Z,89.93
2022-09-10T22:39:17.424Z,89.71
2022-09-10T22:41:46.183Z,89.45
2022-09-10T22:44:14.686Z,89.54
2022-09-10T22:46:42.981Z,89.67
2022-09-10T22:49:10.825Z,89.65
2022-09-10T22:51:41.826Z,89.86
2022-09-10T22:54:10.637Z,90.02
2022-09-10T22:56:39.715Z,90.12
2022-09-10T22:59:12.241Z,90.17
2022-09-10T23:01:40.349Z,90.24
2022-09-10T23:04:09.428Z,90.50
2022-09-10T23:06:38.519Z,90.24
2022-09-10T23:09:14.117Z,90.39
2022-09-10T23:11:44.490Z,90.50
2022-09-10T23:14:15.656Z,90.44
2022-09-10T23:16:47.592Z,90.33
2022-09-10T23:19:25.033Z,90.15
2022-09-10T23:21:54.485Z,90.38
2022-09-10T23:24:24.563Z,90.32
2022-09-10T23:26:53.824Z,90.38
2022-09-10T23:29:23.223Z,90.46
2022-09-10T23:31:55.304Z,90.57
2022-09-10T23:34:23.424Z,90.57
2022-09-10T23:36:52.019Z,90.58
2022-09-10T23:39:24.323Z,90.69
2022-09-10T23:41:54.828Z,90.71
2022-09-10T23:44:22.935Z,90.95
2022-09-10T23:46:50.874Z,90.82
2022-09-10T23:49:18.458Z,90.81
2022-09-10T23:51:46.093Z,90.93
2022-09-10T23:54:13.682Z,90.96
2022-09-10T23:56:41.444Z,91.03
2022-09-10T23:59:10.005Z,91.18
